sensor_id;sensor_type;location;lat;lon;timestamp;pressure;altitude;pressure_sealevel;temperature;humidity
41230;BME280;26964;50.428;19.218;2023-01-29T00:01:09;1028.3;;;-2.5;79.2
41230;BME280;26964;50.428;19.218;2023-01-29T00:06:09;1028.2;;;-2.5;79.1
41230;BME280;26964;50.428;19.218;2023-01-29T00:11:09;1028.2;;;-2.5;79.0
41230;BME280;26964;50.428;19.218;2023-01-29T00:16:09;1028.3;;;-2.5;79.1
41230;BME280;26964;50.428;19.218;2023-01-29T00:21:09;1028.4;;;-2.5;79.2
41230;BME280;26964;50.428;19.218;2023-01-29T00:26:09;1028.2;;;-2.5;79.1
41230;BME280;26964;50.428;19.218;2023-01-29T00:31:10;1028.4;;;-2.5;79.0
41230;BME280;26964;50.428;19.218;2023-01-29T00:36:10;1028.4;;;-2.5;79.1
41230;BME280;26964;50.428;19.218;2023-01-29T00:41:10;1028.4;;;-2.5;79.0
41230;BME280;26964;50.428;19.218;2023-01-29T00:46:09;1028.3;;;-2.5;79.0
41230;BME280;26964;50.428;19.218;2023-01-29T00:51:09;1028.4;;;-2.6;79.0
41230;BME280;26964;50.428;19.218;2023-01-29T00:56:09;1028.6;;;-2.6;78.9
41230;BME280;26964;50.428;19.218;2023-01-29T01:01:09;1028.5;;;-2.6;78.9
41230;BME280;26964;50.428;19.218;2023-01-29T01:06:09;1028.5;;;-2.6;78.9
41230;BME280;26964;50.428;19.218;2023-01-29T01:11:09;1028.5;;;-2.7;78.8
41230;BME280;26964;50.428;19.218;2023-01-29T01:16:09;1028.4;;;-2.7;78.8
41230;BME280;26964;50.428;19.218;2023-01-29T01:21:09;1028.4;;;-2.8;78.7
41230;BME280;26964;50.428;19.218;2023-01-29T01:26:09;1028.3;;;-2.8;78.7
41230;BME280;26964;50.428;19.218;2023-01-29T01:31:09;1028.4;;;-2.8;78.7
41230;BME280;26964;50.428;19.218;2023-01-29T01:36:09;1028.3;;;-2.8;78.7
41230;BME280;26964;50.428;19.218;2023-01-29T01:41:09;1028.2;;;-2.8;78.6
41230;BME280;26964;50.428;19.218;2023-01-29T01:46:09;1028.2;;;-2.8;78.7
41230;BME280;26964;50.428;19.218;2023-01-29T01:51:09;1028.0;;;-2.8;78.7
41230;BME280;26964;50.428;19.218;2023-01-29T01:56:13;1028.0;;;-2.8;78.8
41230;BME280;26964;50.428;19.218;2023-01-29T02:01:08;1027.9;;;-2.8;78.8
41230;BME280;26964;50.428;19.218;2023-01-29T02:06:09;1028.0;;;-2.8;78.8
41230;BME280;26964;50.428;19.218;2023-01-29T02:11:08;1028.0;;;-2.9;78.8
41230;BME280;26964;50.428;19.218;2023-01-29T02:16:08;1028.0;;;-2.9;78.8
41230;BME280;26964;50.428;19.218;2023-01-29T02:21:16;1027.9;;;-3.0;78.8
41230;BME280;26964;50.428;19.218;2023-01-29T02:31:15;1027.9;;;-3.1;78.7
41230;BME280;26964;50.428;19.218;2023-01-29T02:36:14;1028.0;;;-3.2;78.8
41230;BME280;26964;50.428;19.218;2023-01-29T02:41:13;1027.9;;;-3.2;78.9
41230;BME280;26964;50.428;19.218;2023-01-29T02:51:14;1028.1;;;-3.4;78.9
41230;BME280;26964;50.428;19.218;2023-01-29T02:56:14;1028.3;;;-3.5;79.0
41230;BME280;26964;50.428;19.218;2023-01-29T03:01:11;1028.3;;;-3.5;79.1
41230;BME280;26964;50.428;19.218;2023-01-29T03:06:14;1028.2;;;-3.6;79.1
41230;BME280;26964;50.428;19.218;2023-01-29T03:11:10;1028.4;;;-3.7;79.1
41230;BME280;26964;50.428;19.218;2023-01-29T03:16:14;1028.5;;;-3.7;79.1
41230;BME280;26964;50.428;19.218;2023-01-29T03:21:12;1028.4;;;-3.8;79.1
41230;BME280;26964;50.428;19.218;2023-01-29T03:26:08;1028.5;;;-3.9;79.1
41230;BME280;26964;50.428;19.218;2023-01-29T03:31:12;1028.5;;;-4.0;79.1
41230;BME280;26964;50.428;19.218;2023-01-29T03:36:13;1028.4;;;-4.0;79.1
41230;BME280;26964;50.428;19.218;2023-01-29T03:41:13;1028.4;;;-4.1;79.2
41230;BME280;26964;50.428;19.218;2023-01-29T03:46:10;1028.3;;;-4.1;79.2
41230;BME280;26964;50.428;19.218;2023-01-29T03:51:15;1028.2;;;-4.2;79.1
41230;BME280;26964;50.428;19.218;2023-01-29T03:56:15;1028.1;;;-4.2;79.1
41230;BME280;26964;50.428;19.218;2023-01-29T04:01:13;1028.1;;;-4.3;79.2
41230;BME280;26964;50.428;19.218;2023-01-29T04:06:13;1028.2;;;-4.3;79.2
41230;BME280;26964;50.428;19.218;2023-01-29T04:11:13;1028.3;;;-4.3;79.2
41230;BME280;26964;50.428;19.218;2023-01-29T04:16:17;1028.1;;;-4.3;79.2
41230;BME280;26964;50.428;19.218;2023-01-29T04:21:09;1028.0;;;-4.3;79.2
41230;BME280;26964;50.428;19.218;2023-01-29T04:31:11;1027.7;;;-4.3;79.2
41230;BME280;26964;50.428;19.218;2023-01-29T04:41:14;1027.6;;;-4.3;79.2
41230;BME280;26964;50.428;19.218;2023-01-29T04:46:12;1027.4;;;-4.3;79.2
41230;BME280;26964;50.428;19.218;2023-01-29T04:51:14;1027.4;;;-4.2;79.2
41230;BME280;26964;50.428;19.218;2023-01-29T04:56:13;1027.3;;;-4.1;79.3
41230;BME280;26964;50.428;19.218;2023-01-29T05:01:13;1027.4;;;-4.1;79.3
41230;BME280;26964;50.428;19.218;2023-01-29T05:06:09;1027.5;;;-4.0;79.3
41230;BME280;26964;50.428;19.218;2023-01-29T05:11:09;1027.4;;;-4.0;79.2
41230;BME280;26964;50.428;19.218;2023-01-29T05:16:13;1027.5;;;-4.0;79.1
41230;BME280;26964;50.428;19.218;2023-01-29T05:21:08;1027.4;;;-3.9;79.1
41230;BME280;26964;50.428;19.218;2023-01-29T05:26:08;1027.6;;;-4.0;79.1
41230;BME280;26964;50.428;19.218;2023-01-29T05:31:08;1027.6;;;-3.9;79.1
41230;BME280;26964;50.428;19.218;2023-01-29T05:36:08;1027.5;;;-3.9;79.1
41230;BME280;26964;50.428;19.218;2023-01-29T05:41:09;1027.5;;;-3.9;79.1
41230;BME280;26964;50.428;19.218;2023-01-29T05:46:08;1027.6;;;-3.9;79.1
41230;BME280;26964;50.428;19.218;2023-01-29T05:51:09;1027.6;;;-3.9;79.1
41230;BME280;26964;50.428;19.218;2023-01-29T05:56:09;1027.6;;;-3.9;79.2
41230;BME280;26964;50.428;19.218;2023-01-29T06:01:10;1027.7;;;-3.8;79.3
41230;BME280;26964;50.428;19.218;2023-01-29T06:06:09;1027.6;;;-3.8;79.2
41230;BME280;26964;50.428;19.218;2023-01-29T06:11:10;1027.6;;;-3.8;79.1
41230;BME280;26964;50.428;19.218;2023-01-29T06:16:09;1027.7;;;-3.7;79.2
41230;BME280;26964;50.428;19.218;2023-01-29T06:21:09;1027.6;;;-3.7;79.1
41230;BME280;26964;50.428;19.218;2023-01-29T06:26:10;1027.8;;;-3.7;79.1
41230;BME280;26964;50.428;19.218;2023-01-29T06:31:09;1027.8;;;-3.7;79.1
41230;BME280;26964;50.428;19.218;2023-01-29T06:36:08;1027.7;;;-3.7;79.0
41230;BME280;26964;50.428;19.218;2023-01-29T06:41:09;1027.7;;;-3.7;79.0
41230;BME280;26964;50.428;19.218;2023-01-29T06:46:09;1027.6;;;-3.8;78.9
41230;BME280;26964;50.428;19.218;2023-01-29T06:51:09;1027.7;;;-3.8;79.0
41230;BME280;26964;50.428;19.218;2023-01-29T06:56:08;1027.7;;;-3.7;79.0
41230;BME280;26964;50.428;19.218;2023-01-29T07:01:09;1027.8;;;-3.7;79.1
41230;BME280;26964;50.428;19.218;2023-01-29T07:06:15;1027.8;;;-3.6;79.2
41230;BME280;26964;50.428;19.218;2023-01-29T07:11:08;1027.7;;;-3.6;79.1
41230;BME280;26964;50.428;19.218;2023-01-29T07:16:08;1027.8;;;-3.6;79.1
41230;BME280;26964;50.428;19.218;2023-01-29T07:21:08;1028.0;;;-3.5;79.1
41230;BME280;26964;50.428;19.218;2023-01-29T07:26:09;1027.8;;;-3.5;79.1
41230;BME280;26964;50.428;19.218;2023-01-29T07:31:12;1027.9;;;-3.4;79.2
41230;BME280;26964;50.428;19.218;2023-01-29T07:36:12;1027.9;;;-3.4;79.2
41230;BME280;26964;50.428;19.218;2023-01-29T07:41:09;1027.9;;;-3.3;79.2
41230;BME280;26964;50.428;19.218;2023-01-29T07:46:09;1027.9;;;-3.3;79.2
41230;BME280;26964;50.428;19.218;2023-01-29T07:51:09;1028.0;;;-3.3;79.3
41230;BME280;26964;50.428;19.218;2023-01-29T07:56:09;1028.3;;;-3.3;79.3
41230;BME280;26964;50.428;19.218;2023-01-29T08:01:08;1028.3;;;-3.3;79.4
41230;BME280;26964;50.428;19.218;2023-01-29T08:06:09;1028.3;;;-3.3;79.4
41230;BME280;26964;50.428;19.218;2023-01-29T08:11:09;1028.4;;;-3.2;79.4
41230;BME280;26964;50.428;19.218;2023-01-29T08:16:09;1028.4;;;-3.3;79.4
41230;BME280;26964;50.428;19.218;2023-01-29T08:21:08;1028.3;;;-3.3;79.4
41230;BME280;26964;50.428;19.218;2023-01-29T08:26:09;1028.4;;;-3.3;79.5
41230;BME280;26964;50.428;19.218;2023-01-29T08:31:12;1028.5;;;-3.4;79.4
41230;BME280;26964;50.428;19.218;2023-01-29T08:36:08;1028.5;;;-3.4;79.3
41230;BME280;26964;50.428;19.218;2023-01-29T08:41:08;1028.5;;;-3.3;79.5
41230;BME280;26964;50.428;19.218;2023-01-29T08:46:08;1028.6;;;-3.3;79.4
41230;BME280;26964;50.428;19.218;2023-01-29T08:51:10;1028.4;;;-3.2;79.4
41230;BME280;26964;50.428;19.218;2023-01-29T08:56:08;1028.3;;;-3.1;79.3
41230;BME280;26964;50.428;19.218;2023-01-29T09:01:09;1028.1;;;-2.9;79.3
41230;BME280;26964;50.428;19.218;2023-01-29T09:06:08;1028.1;;;-2.7;79.2
41230;BME280;26964;50.428;19.218;2023-01-29T09:11:08;1027.8;;;-2.5;79.1
41230;BME280;26964;50.428;19.218;2023-01-29T09:16:09;1027.9;;;-2.4;78.9
41230;BME280;26964;50.428;19.218;2023-01-29T09:21:08;1028.0;;;-2.4;78.8
41230;BME280;26964;50.428;19.218;2023-01-29T09:26:08;1028.1;;;-2.5;78.5
41230;BME280;26964;50.428;19.218;2023-01-29T09:31:08;1028.0;;;-2.5;78.7
41230;BME280;26964;50.428;19.218;2023-01-29T09:36:08;1028.0;;;-2.6;78.5
41230;BME280;26964;50.428;19.218;2023-01-29T09:46:14;1027.9;;;-2.7;78.2
41230;BME280;26964;50.428;19.218;2023-01-29T09:51:13;1027.9;;;-2.8;78.1
41230;BME280;26964;50.428;19.218;2023-01-29T09:56:12;1027.9;;;-2.8;77.6
41230;BME280;26964;50.428;19.218;2023-01-29T10:01:12;1027.7;;;-2.8;78.0
41230;BME280;26964;50.428;19.218;2023-01-29T10:26:10;1027.2;;;-2.3;77.8
41230;BME280;26964;50.428;19.218;2023-01-29T10:31:14;1027.0;;;-2.3;77.8
41230;BME280;26964;50.428;19.218;2023-01-29T10:36:15;1026.9;;;-2.2;77.7
41230;BME280;26964;50.428;19.218;2023-01-29T10:41:18;1026.8;;;-2.2;77.7
41230;BME280;26964;50.428;19.218;2023-01-29T10:46:18;1026.7;;;-2.1;77.5
41230;BME280;26964;50.428;19.218;2023-01-29T11:06:15;1026.4;;;-2.0;77.6
41230;BME280;26964;50.428;19.218;2023-01-29T11:11:17;1026.1;;;-1.9;77.7
41230;BME280;26964;50.428;19.218;2023-01-29T11:16:08;1026.0;;;-1.9;77.3
41230;BME280;26964;50.428;19.218;2023-01-29T11:21:07;1025.9;;;-1.9;76.8
41230;BME280;26964;50.428;19.218;2023-01-29T11:26:12;1026.0;;;-1.8;77.2
41230;BME280;26964;50.428;19.218;2023-01-29T11:41:13;1026.0;;;-1.7;77.1
41230;BME280;26964;50.428;19.218;2023-01-29T11:46:12;1025.9;;;-1.6;76.9
41230;BME280;26964;50.428;19.218;2023-01-29T11:51:09;1025.9;;;-1.4;77.0
41230;BME280;26964;50.428;19.218;2023-01-29T12:01:08;1025.9;;;-1.2;76.9
41230;BME280;26964;50.428;19.218;2023-01-29T12:06:13;1025.8;;;-1.2;76.5
41230;BME280;26964;50.428;19.218;2023-01-29T12:11:10;1025.8;;;-1.3;76.3
41230;BME280;26964;50.428;19.218;2023-01-29T12:16:12;1025.6;;;-1.4;76.6
41230;BME280;26964;50.428;19.218;2023-01-29T12:21:12;1025.7;;;-1.4;76.5
41230;BME280;26964;50.428;19.218;2023-01-29T12:26:10;1025.6;;;-1.3;76.6
41230;BME280;26964;50.428;19.218;2023-01-29T12:36:12;1025.5;;;-1.3;76.2
41230;BME280;26964;50.428;19.218;2023-01-29T12:46:12;1025.4;;;-1.4;76.2
41230;BME280;26964;50.428;19.218;2023-01-29T12:51:13;1025.3;;;-1.5;76.2
41230;BME280;26964;50.428;19.218;2023-01-29T12:56:13;1025.4;;;-1.5;76.3
41230;BME280;26964;50.428;19.218;2023-01-29T13:01:13;1025.3;;;-1.5;76.0
41230;BME280;26964;50.428;19.218;2023-01-29T13:06:09;1025.2;;;-1.5;76.1
41230;BME280;26964;50.428;19.218;2023-01-29T13:11:11;1025.2;;;-1.5;76.2
41230;BME280;26964;50.428;19.218;2023-01-29T13:16:11;1025.1;;;-1.5;76.2
41230;BME280;26964;50.428;19.218;2023-01-29T13:21:12;1025.1;;;-1.4;76.2
41230;BME280;26964;50.428;19.218;2023-01-29T13:26:07;1025.1;;;-1.4;76.3
41230;BME280;26964;50.428;19.218;2023-01-29T13:31:10;1025.1;;;-1.4;75.9
41230;BME280;26964;50.428;19.218;2023-01-29T13:36:13;1025.0;;;-1.4;75.9
41230;BME280;26964;50.428;19.218;2023-01-29T13:41:07;1024.9;;;-1.4;76.1
41230;BME280;26964;50.428;19.218;2023-01-29T13:46:09;1024.7;;;-1.4;76.0
41230;BME280;26964;50.428;19.218;2023-01-29T13:51:10;1024.7;;;-1.5;76.0
41230;BME280;26964;50.428;19.218;2023-01-29T14:01:07;1024.8;;;-1.4;76.1
41230;BME280;26964;50.428;19.218;2023-01-29T14:06:07;1024.8;;;-1.4;75.9
41230;BME280;26964;50.428;19.218;2023-01-29T14:31:07;1024.7;;;-1.6;75.8
41230;BME280;26964;50.428;19.218;2023-01-29T14:36:10;1024.7;;;-1.6;76.0
41230;BME280;26964;50.428;19.218;2023-01-29T14:51:11;1024.8;;;-1.7;75.8
41230;BME280;26964;50.428;19.218;2023-01-29T14:56:16;1024.7;;;-1.7;75.9
41230;BME280;26964;50.428;19.218;2023-01-29T15:06:13;1024.6;;;-1.8;75.6
41230;BME280;26964;50.428;19.218;2023-01-29T15:11:13;1024.7;;;-1.9;75.8
41230;BME280;26964;50.428;19.218;2023-01-29T15:16:13;1024.6;;;-2.0;75.8
41230;BME280;26964;50.428;19.218;2023-01-29T15:21:11;1024.6;;;-2.0;75.7
41230;BME280;26964;50.428;19.218;2023-01-29T15:26:09;1024.6;;;-2.1;75.9
41230;BME280;26964;50.428;19.218;2023-01-29T15:36:15;1024.6;;;-2.1;75.9
41230;BME280;26964;50.428;19.218;2023-01-29T15:46:11;1024.3;;;-2.2;75.9
41230;BME280;26964;50.428;19.218;2023-01-29T15:51:12;1024.4;;;-2.2;75.8
41230;BME280;26964;50.428;19.218;2023-01-29T15:56:08;1024.3;;;-2.2;75.9
41230;BME280;26964;50.428;19.218;2023-01-29T16:01:14;1024.3;;;-2.3;75.9
41230;BME280;26964;50.428;19.218;2023-01-29T16:06:08;1024.2;;;-2.3;75.9
41230;BME280;26964;50.428;19.218;2023-01-29T16:21:13;1024.0;;;-2.3;75.9
41230;BME280;26964;50.428;19.218;2023-01-29T16:26:13;1024.1;;;-2.3;75.8
41230;BME280;26964;50.428;19.218;2023-01-29T16:31:09;1024.1;;;-2.3;75.9
41230;BME280;26964;50.428;19.218;2023-01-29T16:36:13;1024.1;;;-2.3;75.8
41230;BME280;26964;50.428;19.218;2023-01-29T16:41:15;1024.0;;;-2.3;75.8
41230;BME280;26964;50.428;19.218;2023-01-29T16:51:12;1024.2;;;-2.3;75.8
41230;BME280;26964;50.428;19.218;2023-01-29T16:56:08;1024.1;;;-2.2;75.8
41230;BME280;26964;50.428;19.218;2023-01-29T17:01:15;1024.1;;;-2.2;75.8
41230;BME280;26964;50.428;19.218;2023-01-29T17:06:08;1024.1;;;-2.2;75.8
41230;BME280;26964;50.428;19.218;2023-01-29T17:21:16;1023.9;;;-2.3;75.8
41230;BME280;26964;50.428;19.218;2023-01-29T17:31:08;1023.7;;;-2.3;75.8
41230;BME280;26964;50.428;19.218;2023-01-29T17:36:16;1023.7;;;-2.3;75.8
41230;BME280;26964;50.428;19.218;2023-01-29T17:41:12;1023.7;;;-2.3;75.8
41230;BME280;26964;50.428;19.218;2023-01-29T17:51:10;1023.6;;;-2.3;75.8
41230;BME280;26964;50.428;19.218;2023-01-29T18:06:11;1023.6;;;-2.3;75.8
41230;BME280;26964;50.428;19.218;2023-01-29T18:11:10;1023.6;;;-2.3;75.8
41230;BME280;26964;50.428;19.218;2023-01-29T18:16:08;1023.5;;;-2.3;75.8
41230;BME280;26964;50.428;19.218;2023-01-29T18:21:07;1023.5;;;-2.3;75.8
41230;BME280;26964;50.428;19.218;2023-01-29T18:26:09;1023.5;;;-2.3;75.8
41230;BME280;26964;50.428;19.218;2023-01-29T18:31:08;1023.4;;;-2.3;75.8
41230;BME280;26964;50.428;19.218;2023-01-29T18:36:07;1023.4;;;-2.4;75.9
41230;BME280;26964;50.428;19.218;2023-01-29T18:41:09;1023.5;;;-2.4;76.0
41230;BME280;26964;50.428;19.218;2023-01-29T18:46:12;1023.4;;;-2.5;76.0
41230;BME280;26964;50.428;19.218;2023-01-29T18:51:07;1023.4;;;-2.5;76.0
41230;BME280;26964;50.428;19.218;2023-01-29T18:56:13;1023.3;;;-2.5;76.1
41230;BME280;26964;50.428;19.218;2023-01-29T19:11:08;1023.2;;;-2.7;76.3
41230;BME280;26964;50.428;19.218;2023-01-29T19:16:08;1023.2;;;-2.7;76.3
41230;BME280;26964;50.428;19.218;2023-01-29T19:21:16;1023.1;;;-2.7;76.4
41230;BME280;26964;50.428;19.218;2023-01-29T19:26:07;1023.1;;;-2.7;76.4
41230;BME280;26964;50.428;19.218;2023-01-29T19:31:08;1023.1;;;-2.7;76.4
41230;BME280;26964;50.428;19.218;2023-01-29T19:36:08;1023.0;;;-2.7;76.4
41230;BME280;26964;50.428;19.218;2023-01-29T19:41:08;1023.0;;;-2.7;76.5
41230;BME280;26964;50.428;19.218;2023-01-29T19:56:16;1023.0;;;-2.8;76.7
41230;BME280;26964;50.428;19.218;2023-01-29T20:01:12;1022.9;;;-2.8;76.7
41230;BME280;26964;50.428;19.218;2023-01-29T20:06:07;1022.9;;;-2.8;76.8
41230;BME280;26964;50.428;19.218;2023-01-29T20:11:07;1022.9;;;-2.8;76.9
41230;BME280;26964;50.428;19.218;2023-01-29T20:16:07;1022.8;;;-2.8;76.9
41230;BME280;26964;50.428;19.218;2023-01-29T20:21:08;1022.9;;;-2.8;76.9
41230;BME280;26964;50.428;19.218;2023-01-29T20:26:09;1022.8;;;-2.8;76.9
41230;BME280;26964;50.428;19.218;2023-01-29T20:36:09;1022.8;;;-2.8;77.0
41230;BME280;26964;50.428;19.218;2023-01-29T20:41:08;1022.8;;;-2.8;77.0
41230;BME280;26964;50.428;19.218;2023-01-29T20:46:07;1022.7;;;-2.8;77.0
41230;BME280;26964;50.428;19.218;2023-01-29T20:51:08;1022.7;;;-2.8;77.1
41230;BME280;26964;50.428;19.218;2023-01-29T20:56:06;1022.6;;;-2.8;77.1
41230;BME280;26964;50.428;19.218;2023-01-29T21:01:07;1022.4;;;-2.8;77.1
41230;BME280;26964;50.428;19.218;2023-01-29T21:06:07;1022.5;;;-2.9;77.1
41230;BME280;26964;50.428;19.218;2023-01-29T21:11:07;1022.3;;;-2.9;77.2
41230;BME280;26964;50.428;19.218;2023-01-29T21:16:06;1022.2;;;-2.9;77.2
41230;BME280;26964;50.428;19.218;2023-01-29T21:21:07;1022.1;;;-2.9;77.2
41230;BME280;26964;50.428;19.218;2023-01-29T21:26:06;1022.1;;;-2.9;77.3
41230;BME280;26964;50.428;19.218;2023-01-29T21:31:08;1022.0;;;-2.9;77.3
41230;BME280;26964;50.428;19.218;2023-01-29T21:36:07;1021.9;;;-2.9;77.3
41230;BME280;26964;50.428;19.218;2023-01-29T21:41:07;1021.9;;;-2.9;77.4
41230;BME280;26964;50.428;19.218;2023-01-29T21:46:07;1021.8;;;-2.9;77.4
41230;BME280;26964;50.428;19.218;2023-01-29T21:51:07;1021.9;;;-2.9;77.4
41230;BME280;26964;50.428;19.218;2023-01-29T21:56:06;1021.8;;;-2.9;77.4
41230;BME280;26964;50.428;19.218;2023-01-29T22:01:06;1021.7;;;-2.9;77.4
41230;BME280;26964;50.428;19.218;2023-01-29T22:06:07;1021.6;;;-2.9;77.4
41230;BME280;26964;50.428;19.218;2023-01-29T22:11:07;1021.5;;;-2.9;77.4
41230;BME280;26964;50.428;19.218;2023-01-29T22:16:06;1021.4;;;-2.9;77.4
41230;BME280;26964;50.428;19.218;2023-01-29T22:21:06;1021.3;;;-2.8;77.4
41230;BME280;26964;50.428;19.218;2023-01-29T22:26:06;1021.2;;;-2.8;77.4
41230;BME280;26964;50.428;19.218;2023-01-29T22:31:06;1021.1;;;-2.8;77.4
41230;BME280;26964;50.428;19.218;2023-01-29T22:36:07;1021.0;;;-2.8;77.4
41230;BME280;26964;50.428;19.218;2023-01-29T22:41:10;1021.0;;;-2.8;77.4
41230;BME280;26964;50.428;19.218;2023-01-29T22:46:07;1020.9;;;-2.8;77.4
41230;BME280;26964;50.428;19.218;2023-01-29T22:51:08;1020.8;;;-2.8;77.4
41230;BME280;26964;50.428;19.218;2023-01-29T22:56:07;1020.8;;;-2.8;77.4
41230;BME280;26964;50.428;19.218;2023-01-29T23:01:07;1020.6;;;-2.7;77.4
41230;BME280;26964;50.428;19.218;2023-01-29T23:06:07;1020.6;;;-2.7;77.3
41230;BME280;26964;50.428;19.218;2023-01-29T23:11:08;1020.4;;;-2.7;77.3
41230;BME280;26964;50.428;19.218;2023-01-29T23:16:09;1020.4;;;-2.7;77.3
41230;BME280;26964;50.428;19.218;2023-01-29T23:21:06;1020.2;;;-2.7;77.3
41230;BME280;26964;50.428;19.218;2023-01-29T23:26:08;1020.1;;;-2.7;77.3
41230;BME280;26964;50.428;19.218;2023-01-29T23:31:06;1019.9;;;-2.7;77.3
41230;BME280;26964;50.428;19.218;2023-01-29T23:36:06;1019.8;;;-2.7;77.3
41230;BME280;26964;50.428;19.218;2023-01-29T23:41:06;1019.7;;;-2.7;77.3
41230;BME280;26964;50.428;19.218;2023-01-29T23:46:06;1019.7;;;-2.8;77.3
41230;BME280;26964;50.428;19.218;2023-01-29T23:51:07;1019.5;;;-2.8;77.3
41230;BME280;26964;50.428;19.218;2023-01-29T23:56:06;1019.5;;;-2.8;77.3
